sensor_id;sensor_type;location;lat;lon;timestamp;temperature;humidity
26049;DHT22;13822;51.568;5.086;2022-10-01T05:19:45;12.50;99.90
26049;DHT22;13822;51.568;5.086;2022-10-01T05:24:49;12.50;99.90
26049;DHT22;13822;51.568;5.086;2022-10-01T05:29:56;12.50;99.90
26049;DHT22;13822;51.568;5.086;2022-10-01T05:35:05;12.60;99.90
26049;DHT22;13822;51.568;5.086;2022-10-01T05:40:13;12.60;99.90
26049;DHT22;13822;51.568;5.086;2022-10-01T05:45:18;12.70;99.90
26049;DHT22;13822;51.568;5.086;2022-10-01T05:50:23;12.70;99.90
26049;DHT22;13822;51.568;5.086;2022-10-01T05:55:32;12.70;99.90
26049;DHT22;13822;51.568;5.086;2022-10-01T06:00:38;12.80;99.90
26049;DHT22;13822;51.568;5.086;2022-10-01T06:05:43;12.80;99.90
26049;DHT22;13822;51.568;5.086;2022-10-01T06:10:49;12.80;99.90
26049;DHT22;13822;51.568;5.086;2022-10-01T06:15:52;12.90;99.90
26049;DHT22;13822;51.568;5.086;2022-10-01T06:20:56;12.80;99.90
26049;DHT22;13822;51.568;5.086;2022-10-01T06:25:59;12.80;99.90
26049;DHT22;13822;51.568;5.086;2022-10-01T06:31:01;12.90;99.90
26049;DHT22;13822;51.568;5.086;2022-10-01T06:36:04;12.90;99.90
26049;DHT22;13822;51.568;5.086;2022-10-01T06:41:05;12.90;99.90
26049;DHT22;13822;51.568;5.086;2022-10-01T06:46:07;12.90;99.90
26049;DHT22;13822;51.568;5.086;2022-10-01T06:51:09;13.00;99.90
26049;DHT22;13822;51.568;5.086;2022-10-01T06:56:11;13.00;99.90
26049;DHT22;13822;51.568;5.086;2022-10-01T07:01:13;13.10;99.90
26049;DHT22;13822;51.568;5.086;2022-10-01T07:06:20;13.20;99.90
26049;DHT22;13822;51.568;5.086;2022-10-01T07:11:22;13.30;99.90
26049;DHT22;13822;51.568;5.086;2022-10-01T07:16:24;13.40;99.90
26049;DHT22;13822;51.568;5.086;2022-10-01T07:21:26;13.50;99.90
26049;DHT22;13822;51.568;5.086;2022-10-01T07:26:28;13.50;99.90
26049;DHT22;13822;51.568;5.086;2022-10-01T07:31:33;13.60;99.90
26049;DHT22;13822;51.568;5.086;2022-10-01T07:36:38;13.50;99.90
26049;DHT22;13822;51.568;5.086;2022-10-01T07:41:43;13.60;99.90
26049;DHT22;13822;51.568;5.086;2022-10-01T07:46:47;13.60;99.90
26049;DHT22;13822;51.568;5.086;2022-10-01T07:51:52;13.60;99.90
26049;DHT22;13822;51.568;5.086;2022-10-01T07:56:55;13.60;99.90
26049;DHT22;13822;51.568;5.086;2022-10-01T08:01:57;13.60;99.90
26049;DHT22;13822;51.568;5.086;2022-10-01T08:07:03;13.70;99.90
26049;DHT22;13822;51.568;5.086;2022-10-01T08:12:08;13.80;99.90
26049;DHT22;13822;51.568;5.086;2022-10-01T08:17:10;13.90;99.90
26049;DHT22;13822;51.568;5.086;2022-10-01T08:22:15;13.90;99.90
26049;DHT22;13822;51.568;5.086;2022-10-01T08:27:17;13.90;99.90
26049;DHT22;13822;51.568;5.086;2022-10-01T08:32:19;14.00;99.90
26049;DHT22;13822;51.568;5.086;2022-10-01T08:37:25;14.00;99.90
26049;DHT22;13822;51.568;5.086;2022-10-01T08:47:34;14.10;99.90
26049;DHT22;13822;51.568;5.086;2022-10-01T08:52:41;14.10;99.90
26049;DHT22;13822;51.568;5.086;2022-10-01T08:57:57;14.10;99.90
26049;DHT22;13822;51.568;5.086;2022-10-01T09:03:03;14.20;99.90
26049;DHT22;13822;51.568;5.086;2022-10-01T09:24:32;14.50;99.90
26049;DHT22;13822;51.568;5.086;2022-10-01T09:29:42;14.60;99.90
26049;DHT22;13822;51.568;5.086;2022-10-01T09:34:46;14.70;99.90
26049;DHT22;13822;51.568;5.086;2022-10-01T09:40:09;14.80;99.90
26049;DHT22;13822;51.568;5.086;2022-10-01T09:45:28;14.90;99.90
26049;DHT22;13822;51.568;5.086;2022-10-01T09:50:33;14.90;99.90
26049;DHT22;13822;51.568;5.086;2022-10-01T09:55:44;15.10;99.90
26049;DHT22;13822;51.568;5.086;2022-10-01T10:00:52;15.20;99.90
26049;DHT22;13822;51.568;5.086;2022-10-01T10:05:54;15.40;99.90
26049;DHT22;13822;51.568;5.086;2022-10-01T10:10:59;15.50;99.90
26049;DHT22;13822;51.568;5.086;2022-10-01T10:21:22;15.30;99.90
26049;DHT22;13822;51.568;5.086;2022-10-01T10:26:28;15.30;99.90
26049;DHT22;13822;51.568;5.086;2022-10-01T10:31:36;15.40;99.90
26049;DHT22;13822;51.568;5.086;2022-10-01T10:36:39;15.40;99.90
26049;DHT22;13822;51.568;5.086;2022-10-01T10:41:42;15.20;99.90
26049;DHT22;13822;51.568;5.086;2022-10-01T10:46:45;15.10;99.90
26049;DHT22;13822;51.568;5.086;2022-10-01T10:51:49;15.00;99.90
26049;DHT22;13822;51.568;5.086;2022-10-01T10:56:56;15.10;99.90
26049;DHT22;13822;51.568;5.086;2022-10-01T11:02:05;15.20;99.90
26049;DHT22;13822;51.568;5.086;2022-10-01T11:07:09;15.60;99.90
26049;DHT22;13822;51.568;5.086;2022-10-01T11:17:34;16.40;99.90
26049;DHT22;13822;51.568;5.086;2022-10-01T11:28:31;16.50;99.90
26049;DHT22;13822;51.568;5.086;2022-10-01T11:33:42;16.40;99.90
26049;DHT22;13822;51.568;5.086;2022-10-01T11:49:39;15.90;99.90
26049;DHT22;13822;51.568;5.086;2022-10-01T11:54:53;16.10;99.90
26049;DHT22;13822;51.568;5.086;2022-10-01T12:00:19;16.30;99.90
26049;DHT22;13822;51.568;5.086;2022-10-01T12:05:28;16.60;99.90
26049;DHT22;13822;51.568;5.086;2022-10-01T12:10:37;16.90;99.90
26049;DHT22;13822;51.568;5.086;2022-10-01T12:27:00;17.20;99.90
26049;DHT22;13822;51.568;5.086;2022-10-01T12:31:39;17.20;99.90
26049;DHT22;13822;51.568;5.086;2022-10-01T12:52:40;18.20;99.90
26049;DHT22;13822;51.568;5.086;2022-10-01T12:57:51;18.30;99.90
26049;DHT22;13822;51.568;5.086;2022-10-01T13:13:49;17.70;99.90
26049;DHT22;13822;51.568;5.086;2022-10-01T13:18:54;17.30;99.90
26049;DHT22;13822;51.568;5.086;2022-10-01T13:24:17;16.90;99.90
26049;DHT22;13822;51.568;5.086;2022-10-01T13:29:33;16.70;99.90
26049;DHT22;13822;51.568;5.086;2022-10-01T13:34:42;16.60;99.90
26049;DHT22;13822;51.568;5.086;2022-10-01T13:39:47;16.80;99.90
26049;DHT22;13822;51.568;5.086;2022-10-01T13:44:53;17.20;99.90
26049;DHT22;13822;51.568;5.086;2022-10-01T13:49:58;17.60;99.90
26049;DHT22;13822;51.568;5.086;2022-10-01T13:55:04;18.00;99.90
26049;DHT22;13822;51.568;5.086;2022-10-01T14:05:23;18.30;99.90
26049;DHT22;13822;51.568;5.086;2022-10-01T14:10:31;18.50;99.90
26049;DHT22;13822;51.568;5.086;2022-10-01T14:15:43;18.80;99.90
26049;DHT22;13822;51.568;5.086;2022-10-01T14:26:38;19.10;99.90
26049;DHT22;13822;51.568;5.086;2022-10-01T14:31:55;19.20;99.90
26049;DHT22;13822;51.568;5.086;2022-10-01T14:37:04;19.30;99.90
26049;DHT22;13822;51.568;5.086;2022-10-01T14:42:09;19.40;99.90
26049;DHT22;13822;51.568;5.086;2022-10-01T14:47:18;19.50;99.90
26049;DHT22;13822;51.568;5.086;2022-10-01T14:52:25;19.60;99.90
26049;DHT22;13822;51.568;5.086;2022-10-01T14:57:36;19.60;99.90
26049;DHT22;13822;51.568;5.086;2022-10-01T15:02:46;19.50;99.90
26049;DHT22;13822;51.568;5.086;2022-10-01T15:13:27;19.50;99.90
26049;DHT22;13822;51.568;5.086;2022-10-01T15:18:33;19.30;99.90
26049;DHT22;13822;51.568;5.086;2022-10-01T15:23:37;19.20;99.90
26049;DHT22;13822;51.568;5.086;2022-10-01T15:28:40;19.10;99.90
26049;DHT22;13822;51.568;5.086;2022-10-01T15:33:41;19.00;99.90
26049;DHT22;13822;51.568;5.086;2022-10-01T15:38:44;19.10;99.90
26049;DHT22;13822;51.568;5.086;2022-10-01T15:43:46;19.00;99.90
26049;DHT22;13822;51.568;5.086;2022-10-01T15:48:48;19.00;99.90
26049;DHT22;13822;51.568;5.086;2022-10-01T15:54:25;18.90;99.90
26049;DHT22;13822;51.568;5.086;2022-10-01T15:59:27;18.80;99.90
26049;DHT22;13822;51.568;5.086;2022-10-01T16:04:29;18.60;99.90
26049;DHT22;13822;51.568;5.086;2022-10-01T16:09:31;18.40;99.90
26049;DHT22;13822;51.568;5.086;2022-10-01T16:14:36;18.30;99.90
26049;DHT22;13822;51.568;5.086;2022-10-01T16:19:45;18.20;99.90
26049;DHT22;13822;51.568;5.086;2022-10-01T16:24:53;18.00;99.90
26049;DHT22;13822;51.568;5.086;2022-10-01T16:30:09;17.90;99.90
26049;DHT22;13822;51.568;5.086;2022-10-01T16:35:23;17.70;99.90
26049;DHT22;13822;51.568;5.086;2022-10-01T16:40:29;17.60;99.90
26049;DHT22;13822;51.568;5.086;2022-10-01T16:45:34;17.40;99.90
26049;DHT22;13822;51.568;5.086;2022-10-01T16:50:37;17.10;99.90
26049;DHT22;13822;51.568;5.086;2022-10-01T16:55:40;17.00;99.90
26049;DHT22;13822;51.568;5.086;2022-10-01T17:00:42;16.80;99.90
26049;DHT22;13822;51.568;5.086;2022-10-01T17:05:44;16.70;99.90
26049;DHT22;13822;51.568;5.086;2022-10-01T17:10:48;16.50;99.90
26049;DHT22;13822;51.568;5.086;2022-10-01T17:15:54;16.40;99.90
26049;DHT22;13822;51.568;5.086;2022-10-01T17:20:56;16.30;99.90
26049;DHT22;13822;51.568;5.086;2022-10-01T17:25:58;16.20;99.90
26049;DHT22;13822;51.568;5.086;2022-10-01T17:31:04;16.10;99.90
26049;DHT22;13822;51.568;5.086;2022-10-01T17:37:06;16.00;99.90
26049;DHT22;13822;51.568;5.086;2022-10-01T17:49:37;15.80;99.90
